Time;durP1;ratioP1;P1;durP2;ratioP2;P2;SDS_P1;SDS_P2;PMS_P1;PMS_P2;Temp;Humidity;BMP_temperature;BMP_pressure;BME280_temperature;BME280_humidity;BME280_pressure;Samples;Min_cycle;Max_cycle;Signal;HPM_P1;HPM_P2
2023/10/29 00:02:24;;;;;;;4.28;1.83;;;;;;;;;;5052956;28;20061;-62
2023/10/29 00:04:50;;;;;;;3.08;1.70;;;;;;;;;;5052671;28;20751;-61
2023/10/29 00:07:16;;;;;;;5.82;1.70;;;;;;;;;;5053800;28;20068;-62
2023/10/29 00:09:41;;;;;;;2.53;1.23;;;;;;;;;;5051400;28;20067;-60
2023/10/29 00:12:07;;;;;;;3.55;1.45;;;;;;;;;;5054252;28;20045;-62
2023/10/29 00:14:32;;;;;;;3.40;1.60;;;;;;;;;;5052821;28;20041;-62
2023/10/29 00:16:58;;;;;;;3.40;1.65;;;;;;;;;;5053327;28;20091;-61
2023/10/29 00:19:23;;;;;;;3.47;1.13;;;;;;;;;;5055386;28;20037;-60
2023/10/29 00:21:49;;;;;;;3.08;1.50;;;;;;;;;;5053363;28;20525;-61
2023/10/29 00:24:15;;;;;;;3.65;1.77;;;;;;;;;;5057437;28;20079;-62
2023/10/29 00:26:40;;;;;;;2.95;1.55;;;;;;;;;;5055082;28;20095;-61
2023/10/29 00:29:07;;;;;;;3.03;1.38;;;;;;;;;;5055185;28;20584;-62
2023/10/29 00:31:33;;;;;;;3.47;1.58;;;;;;;;;;5054448;28;20072;-61
2023/10/29 00:33:59;;;;;;;3.72;1.40;;;;;;;;;;5057527;28;20051;-62
2023/10/29 00:36:24;;;;;;;3.00;1.30;;;;;;;;;;5053444;28;20045;-61
2023/10/29 00:38:50;;;;;;;3.65;1.60;;;;;;;;;;5052570;28;20468;-61
2023/10/29 00:41:15;;;;;;;2.42;1.20;;;;;;;;;;5053615;28;20037;-62
2023/10/29 00:43:41;;;;;;;3.90;1.40;;;;;;;;;;5049843;28;20086;-62
2023/10/29 00:46:07;;;;;;;3.33;1.35;;;;;;;;;;5053020;28;20584;-61
2023/10/29 00:48:33;;;;;;;3.00;1.40;;;;;;;;;;5054390;28;20073;-61
2023/10/29 00:50:59;;;;;;;2.83;1.45;;;;;;;;;;5054574;28;20475;-61
2023/10/29 00:53:25;;;;;;;2.67;1.30;;;;;;;;;;5054100;28;20029;-60
2023/10/29 00:55:50;;;;;;;3.47;1.45;;;;;;;;;;5052745;28;20028;-61
2023/10/29 00:58:16;;;;;;;3.22;1.58;;;;;;;;;;5053518;28;20040;-61
2023/10/29 01:00:42;;;;;;;3.08;1.23;;;;;;;;;;5049442;28;20534;-62
2023/10/29 01:03:07;;;;;;;3.25;1.30;;;;;;;;;;5049738;28;20068;-62
2023/10/29 01:05:33;;;;;;;4.55;1.50;;;;;;;;;;5052446;28;20040;-62
2023/10/29 01:08:00;;;;;;;2.70;1.38;;;;;;;;;;5054306;28;20094;-62
2023/10/29 01:10:26;;;;;;;3.45;1.30;;;;;;;;;;5050358;28;20076;-61
2023/10/29 01:12:51;;;;;;;7.32;1.50;;;;;;;;;;5053379;28;20094;-60
2023/10/29 01:15:17;;;;;;;2.85;1.08;;;;;;;;;;5052328;28;20098;-62
2023/10/29 01:17:42;;;;;;;2.47;1.30;;;;;;;;;;5051197;28;20469;-61
2023/10/29 01:20:08;;;;;;;2.97;1.30;;;;;;;;;;5051493;28;20649;-62
2023/10/29 01:22:34;;;;;;;3.10;1.40;;;;;;;;;;5052626;28;20076;-60
2023/10/29 01:25:00;;;;;;;3.72;1.50;;;;;;;;;;5050797;28;20513;-61
2023/10/29 01:27:26;;;;;;;3.70;1.30;;;;;;;;;;5050638;28;20037;-60
2023/10/29 01:29:52;;;;;;;3.90;1.30;;;;;;;;;;5051037;28;20112;-60
2023/10/29 01:32:17;;;;;;;2.42;1.10;;;;;;;;;;5050058;28;20041;-61
2023/10/29 01:34:43;;;;;;;3.08;1.17;;;;;;;;;;5050200;28;20498;-61
2023/10/29 01:37:09;;;;;;;2.20;1.10;;;;;;;;;;5053096;28;20105;-62
2023/10/29 01:39:34;;;;;;;2.28;1.05;;;;;;;;;;5051574;28;20099;-61
2023/10/29 01:42:00;;;;;;;3.50;1.27;;;;;;;;;;5053708;28;20808;-62
2023/10/29 01:44:25;;;;;;;2.80;1.30;;;;;;;;;;5050205;28;20037;-62
2023/10/29 01:46:51;;;;;;;2.50;1.13;;;;;;;;;;5050998;28;20090;-62
2023/10/29 01:49:17;;;;;;;2.75;1.30;;;;;;;;;;5050631;28;20595;-61
2023/10/29 01:51:42;;;;;;;2.55;1.10;;;;;;;;;;5052820;28;20044;-61
2023/10/29 01:54:08;;;;;;;4.75;1.20;;;;;;;;;;5050321;28;20078;-62
2023/10/29 01:56:34;;;;;;;2.80;1.08;;;;;;;;;;5051793;28;20651;-61
2023/10/29 01:59:00;;;;;;;2.08;1.00;;;;;;;;;;5050621;28;20527;-61
2023/10/29 02:01:25;;;;;;;3.30;1.08;;;;;;;;;;5053205;28;20067;-60
2023/10/29 02:03:51;;;;;;;2.20;1.05;;;;;;;;;;5049560;28;20056;-61
2023/10/29 02:06:17;;;;;;;2.88;1.00;;;;;;;;;;5050565;28;20041;-62
2023/10/29 02:08:43;;;;;;;2.60;1.45;;;;;;;;;;5052829;28;20067;-62
2023/10/29 02:11:08;;;;;;;2.45;1.23;;;;;;;;;;5052269;28;20040;-62
2023/10/29 02:13:35;;;;;;;2.20;1.13;;;;;;;;;;5051480;28;20044;-62
2023/10/29 02:16:02;;;;;;;2.13;0.93;;;;;;;;;;5052310;28;20113;-61
2023/10/29 02:18:27;;;;;;;2.50;1.15;;;;;;;;;;5052479;28;20061;-61
2023/10/29 02:20:53;;;;;;;3.17;1.20;;;;;;;;;;5052454;28;20079;-62
2023/10/29 02:23:19;;;;;;;2.55;1.23;;;;;;;;;;5050819;28;20415;-61
2023/10/29 02:25:45;;;;;;;2.95;1.20;;;;;;;;;;5048598;28;20064;-61
2023/10/29 02:28:10;;;;;;;2.67;1.00;;;;;;;;;;5053113;28;20078;-62
2023/10/29 02:30:36;;;;;;;2.83;1.30;;;;;;;;;;5052473;28;20033;-61
2023/10/29 02:33:02;;;;;;;2.90;1.10;;;;;;;;;;5050052;28;20086;-60
2023/10/29 02:35:28;;;;;;;3.55;1.10;;;;;;;;;;5052783;28;20522;-62
2023/10/29 02:37:54;;;;;;;2.20;1.10;;;;;;;;;;5052249;28;20545;-61
2023/10/29 02:40:20;;;;;;;4.25;1.20;;;;;;;;;;5052046;28;20490;-61
2023/10/29 02:42:45;;;;;;;2.13;1.10;;;;;;;;;;5052030;28;20132;-61
2023/10/29 02:45:11;;;;;;;1.55;0.82;;;;;;;;;;5054919;28;20124;-61
2023/10/29 02:47:37;;;;;;;3.63;1.20;;;;;;;;;;5049884;28;20048;-61
2023/10/29 02:50:02;;;;;;;2.50;1.08;;;;;;;;;;5049757;28;20049;-61
2023/10/29 02:52:28;;;;;;;2.28;1.00;;;;;;;;;;5051769;28;20036;-61
2023/10/29 02:54:56;;;;;;;2.13;0.98;;;;;;;;;;5049587;28;20595;-62
2023/10/29 02:57:22;;;;;;;2.65;1.00;;;;;;;;;;5051992;28;20060;-62
2023/10/29 02:59:48;;;;;;;1.98;0.82;;;;;;;;;;5050870;28;20092;-61
2023/10/29 03:02:13;;;;;;;1.90;0.80;;;;;;;;;;5051505;28;20520;-62
2023/10/29 03:04:39;;;;;;;2.42;1.10;;;;;;;;;;5053516;28;20087;-61
2023/10/29 03:07:05;;;;;;;3.08;1.35;;;;;;;;;;5049867;28;20033;-62
2023/10/29 03:09:30;;;;;;;2.50;0.90;;;;;;;;;;5052022;28;20044;-61
2023/10/29 03:11:56;;;;;;;2.78;1.13;;;;;;;;;;5052548;28;20093;-61
2023/10/29 03:14:22;;;;;;;2.03;0.95;;;;;;;;;;5050193;28;20094;-61
2023/10/29 03:16:47;;;;;;;2.35;0.93;;;;;;;;;;5048999;28;20123;-61
2023/10/29 03:19:13;;;;;;;1.85;0.90;;;;;;;;;;5050279;28;20574;-62
2023/10/29 03:21:38;;;;;;;1.90;0.80;;;;;;;;;;5051994;28;20067;-60
2023/10/29 03:24:04;;;;;;;1.67;0.80;;;;;;;;;;5051789;28;20036;-61
2023/10/29 03:26:30;;;;;;;2.13;0.95;;;;;;;;;;5049845;28;20064;-60
2023/10/29 03:28:55;;;;;;;1.90;0.82;;;;;;;;;;5049091;28;20021;-63
2023/10/29 03:31:23;;;;;;;1.50;0.77;;;;;;;;;;5050747;28;20572;-62
2023/10/29 03:33:49;;;;;;;2.95;0.90;;;;;;;;;;5049757;28;21234;-61
2023/10/29 03:36:14;;;;;;;2.25;1.00;;;;;;;;;;5050144;28;20043;-60
2023/10/29 03:38:40;;;;;;;3.03;1.10;;;;;;;;;;5048523;28;20126;-61
2023/10/29 03:41:06;;;;;;;2.72;1.00;;;;;;;;;;5049369;28;20021;-61
2023/10/29 03:43:31;;;;;;;5.60;1.20;;;;;;;;;;5048430;28;20119;-60
2023/10/29 03:45:57;;;;;;;2.40;0.88;;;;;;;;;;5050180;28;20645;-61
2023/10/29 03:48:22;;;;;;;2.20;0.95;;;;;;;;;;5052189;28;20079;-60
2023/10/29 03:50:48;;;;;;;2.00;0.82;;;;;;;;;;5048895;28;20025;-61
2023/10/29 03:53:14;;;;;;;2.72;1.05;;;;;;;;;;5048329;28;20335;-61
2023/10/29 03:55:39;;;;;;;2.10;1.00;;;;;;;;;;5049253;28;20103;-62
2023/10/29 03:58:05;;;;;;;3.00;0.90;;;;;;;;;;5050833;28;20040;-61
2023/10/29 04:00:30;;;;;;;2.10;0.90;;;;;;;;;;5049434;28;20037;-61
2023/10/29 04:02:56;;;;;;;2.45;1.00;;;;;;;;;;5048775;28;20086;-62
2023/10/29 04:05:22;;;;;;;1.98;0.90;;;;;;;;;;5051637;28;20033;-61
2023/10/29 04:07:48;;;;;;;2.72;0.90;;;;;;;;;;5048869;28;20037;-60
2023/10/29 04:10:14;;;;;;;2.17;1.00;;;;;;;;;;5046305;28;20068;-62
2023/10/29 04:12:39;;;;;;;1.75;0.85;;;;;;;;;;5049563;28;20136;-62
2023/10/29 04:15:05;;;;;;;2.47;1.35;;;;;;;;;;5050270;28;20132;-61
2023/10/29 04:17:31;;;;;;;1.98;0.70;;;;;;;;;;5051229;28;20572;-62
2023/10/29 04:19:58;;;;;;;2.20;0.90;;;;;;;;;;5049505;28;20075;-61
2023/10/29 04:22:23;;;;;;;2.55;0.80;;;;;;;;;;5050931;28;20091;-61
2023/10/29 04:24:50;;;;;;;2.08;0.80;;;;;;;;;;5048287;28;20452;-61
2023/10/29 04:27:16;;;;;;;2.13;0.88;;;;;;;;;;5048847;28;20138;-61
2023/10/29 04:29:42;;;;;;;2.13;1.00;;;;;;;;;;5049077;28;20441;-61
2023/10/29 04:32:07;;;;;;;2.00;0.90;;;;;;;;;;5049113;28;20068;-62
2023/10/29 04:34:33;;;;;;;2.42;1.00;;;;;;;;;;5048464;28;20044;-60
2023/10/29 04:36:59;;;;;;;2.50;1.00;;;;;;;;;;5049342;28;20053;-61
2023/10/29 04:39:24;;;;;;;2.88;1.00;;;;;;;;;;5047583;28;20075;-61
2023/10/29 04:41:50;;;;;;;1.77;0.88;;;;;;;;;;5051534;28;20037;-61
2023/10/29 04:44:16;;;;;;;2.95;0.80;;;;;;;;;;5049630;28;20048;-61
2023/10/29 04:46:42;;;;;;;1.75;0.73;;;;;;;;;;5049877;28;20028;-62
2023/10/29 04:49:07;;;;;;;2.33;1.00;;;;;;;;;;5049653;28;20102;-61
2023/10/29 04:51:33;;;;;;;2.35;0.88;;;;;;;;;;5049045;28;20452;-61
2023/10/29 04:54:00;;;;;;;2.22;0.82;;;;;;;;;;5048377;28;20029;-62
2023/10/29 04:56:25;;;;;;;1.95;0.80;;;;;;;;;;5050954;28;20447;-62
2023/10/29 04:58:51;;;;;;;2.25;0.80;;;;;;;;;;5051659;28;20060;-60
2023/10/29 05:01:17;;;;;;;2.28;0.85;;;;;;;;;;5054437;28;20041;-61
2023/10/29 05:03:46;;;;;;;1.95;0.82;;;;;;;;;;5053219;28;20606;-62
2023/10/29 05:06:20;;;;;;;2.00;0.90;;;;;;;;;;5052670;28;20068;-61
2023/10/29 05:08:46;;;;;;;2.08;0.88;;;;;;;;;;5054508;28;20138;-61
2023/10/29 05:11:12;;;;;;;1.92;0.80;;;;;;;;;;5053294;28;21200;-61
2023/10/29 05:13:38;;;;;;;2.97;0.70;;;;;;;;;;5051848;28;20578;-62
2023/10/29 05:16:04;;;;;;;1.60;0.73;;;;;;;;;;5053433;28;20119;-62
2023/10/29 05:18:30;;;;;;;2.33;0.80;;;;;;;;;;5053761;28;20040;-61
2023/10/29 05:20:55;;;;;;;1.80;0.90;;;;;;;;;;5052330;28;20101;-61
2023/10/29 05:23:21;;;;;;;1.60;0.70;;;;;;;;;;5053817;28;20033;-61
2023/10/29 05:25:46;;;;;;;1.63;0.70;;;;;;;;;;5050088;28;20032;-61
2023/10/29 05:28:12;;;;;;;1.85;0.70;;;;;;;;;;5053910;28;20101;-61
2023/10/29 05:30:39;;;;;;;1.67;0.63;;;;;;;;;;5052629;28;20063;-61
2023/10/29 05:33:04;;;;;;;1.70;0.77;;;;;;;;;;5052220;28;20060;-61
2023/10/29 05:35:30;;;;;;;1.60;0.70;;;;;;;;;;5055860;28;20102;-61
2023/10/29 05:37:55;;;;;;;1.60;0.70;;;;;;;;;;5053947;28;20067;-60
2023/10/29 05:40:21;;;;;;;2.20;0.90;;;;;;;;;;5054484;28;20020;-62
2023/10/29 05:42:47;;;;;;;2.45;0.75;;;;;;;;;;5051966;28;20036;-61
2023/10/29 05:45:12;;;;;;;2.08;0.90;;;;;;;;;;5050644;28;20083;-61
2023/10/29 05:47:38;;;;;;;3.25;0.88;;;;;;;;;;5055131;28;20094;-61
2023/10/29 05:50:04;;;;;;;1.73;0.73;;;;;;;;;;5050334;28;20041;-59
2023/10/29 05:52:30;;;;;;;1.63;0.70;;;;;;;;;;5055003;28;20037;-60
2023/10/29 05:54:56;;;;;;;2.20;0.90;;;;;;;;;;5050225;28;20052;-60
2023/10/29 05:57:21;;;;;;;2.88;1.20;;;;;;;;;;5051973;28;20137;-62
2023/10/29 05:59:47;;;;;;;1.65;0.85;;;;;;;;;;5049283;28;20548;-60
2023/10/29 06:02:12;;;;;;;2.08;0.98;;;;;;;;;;5050211;28;20037;-61
2023/10/29 06:04:38;;;;;;;1.30;0.60;;;;;;;;;;5052387;28;20033;-60
2023/10/29 06:07:04;;;;;;;1.90;0.60;;;;;;;;;;5050383;28;20137;-62
2023/10/29 06:09:29;;;;;;;2.50;0.70;;;;;;;;;;5049629;28;20502;-61
2023/10/29 06:11:55;;;;;;;1.38;0.68;;;;;;;;;;5052534;28;20118;-60
2023/10/29 06:14:22;;;;;;;6.00;0.82;;;;;;;;;;5054596;28;20033;-61
2023/10/29 06:16:48;;;;;;;2.38;0.60;;;;;;;;;;5050163;28;20167;-61
2023/10/29 06:19:13;;;;;;;2.30;0.73;;;;;;;;;;5051564;28;20941;-61
2023/10/29 06:21:39;;;;;;;3.78;0.70;;;;;;;;;;5052010;28;20086;-61
2023/10/29 06:24:06;;;;;;;1.92;0.70;;;;;;;;;;5051990;28;20094;-60
2023/10/29 06:26:31;;;;;;;2.35;0.80;;;;;;;;;;5052480;28;20122;-62
2023/10/29 06:28:57;;;;;;;2.65;0.90;;;;;;;;;;5052464;28;20568;-62
2023/10/29 06:31:33;;;;;;;2.03;0.80;;;;;;;;;;5054518;28;20086;-61
2023/10/29 06:33:58;;;;;;;1.77;0.75;;;;;;;;;;5051763;28;20060;-62
2023/10/29 06:36:24;;;;;;;3.03;0.70;;;;;;;;;;5051084;28;20040;-61
2023/10/29 06:38:50;;;;;;;2.22;0.70;;;;;;;;;;5053110;28;20094;-61
2023/10/29 06:41:15;;;;;;;1.75;0.70;;;;;;;;;;5052507;28;20036;-62
2023/10/29 06:43:41;;;;;;;1.20;0.60;;;;;;;;;;5052812;28;20040;-62
2023/10/29 06:46:06;;;;;;;2.13;0.93;;;;;;;;;;5053862;28;21266;-61
2023/10/29 06:48:32;;;;;;;3.88;0.75;;;;;;;;;;5051887;28;20046;-61
2023/10/29 06:50:57;;;;;;;1.52;0.60;;;;;;;;;;5051650;28;20048;-61
2023/10/29 06:53:23;;;;;;;2.10;0.80;;;;;;;;;;5053598;28;20887;-60
2023/10/29 06:55:49;;;;;;;1.60;0.77;;;;;;;;;;5052285;28;20078;-59
2023/10/29 06:58:14;;;;;;;3.45;1.10;;;;;;;;;;5054010;28;20040;-60
2023/10/29 07:00:40;;;;;;;1.50;0.60;;;;;;;;;;5054477;28;20696;-61
2023/10/29 07:03:06;;;;;;;2.65;1.50;;;;;;;;;;5054621;28;20105;-60
2023/10/29 07:05:31;;;;;;;2.70;1.38;;;;;;;;;;5049435;28;20033;-61
2023/10/29 07:07:58;;;;;;;3.92;1.70;;;;;;;;;;5051642;28;20044;-57
2023/10/29 07:10:24;;;;;;;4.57;1.85;;;;;;;;;;5049204;28;20080;-61
2023/10/29 07:12:49;;;;;;;5.93;2.80;;;;;;;;;;5049857;28;20567;-60
2023/10/29 07:15:15;;;;;;;4.55;2.97;;;;;;;;;;5050659;28;20048;-60
2023/10/29 07:17:41;;;;;;;6.10;3.20;;;;;;;;;;5050101;28;20057;-61
2023/10/29 07:20:08;;;;;;;5.80;3.28;;;;;;;;;;5052487;28;20040;-61
2023/10/29 07:22:33;;;;;;;6.82;3.90;;;;;;;;;;5049662;28;20064;-60
2023/10/29 07:24:59;;;;;;;6.65;3.80;;;;;;;;;;5051321;28;20489;-63
2023/10/29 07:27:25;;;;;;;7.78;4.47;;;;;;;;;;5050970;28;20025;-62
2023/10/29 07:29:50;;;;;;;7.68;4.10;;;;;;;;;;5053884;28;20040;-67
2023/10/29 07:32:16;;;;;;;8.45;4.25;;;;;;;;;;5052496;28;20607;-62
2023/10/29 07:34:41;;;;;;;13.68;3.17;;;;;;;;;;5051478;28;20115;-61
2023/10/29 07:37:07;;;;;;;8.18;3.20;;;;;;;;;;5055219;28;20040;-62
2023/10/29 07:39:33;;;;;;;5.65;2.80;;;;;;;;;;5055378;28;20052;-61
2023/10/29 07:42:01;;;;;;;7.68;2.88;;;;;;;;;;5055317;28;20084;-60
2023/10/29 07:44:26;;;;;;;5.07;2.83;;;;;;;;;;5055000;28;20207;-60
2023/10/29 07:46:52;;;;;;;6.00;2.45;;;;;;;;;;5056407;28;20490;-59
2023/10/29 07:49:17;;;;;;;5.63;2.15;;;;;;;;;;5052707;28;20044;-60
2023/10/29 07:51:43;;;;;;;6.15;2.30;;;;;;;;;;5051313;28;20033;-61
2023/10/29 07:54:09;;;;;;;3.97;1.90;;;;;;;;;;5054700;28;20457;-61
2023/10/29 07:56:34;;;;;;;5.50;2.08;;;;;;;;;;5052949;28;20110;-60
2023/10/29 07:59:00;;;;;;;4.25;2.00;;;;;;;;;;5050995;28;20032;-61
2023/10/29 08:01:25;;;;;;;3.30;1.83;;;;;;;;;;5051836;28;20628;-60
2023/10/29 08:03:51;;;;;;;2.97;1.63;;;;;;;;;;5050213;28;20033;-61
2023/10/29 08:06:17;;;;;;;6.78;1.55;;;;;;;;;;5051261;28;20093;-60
2023/10/29 08:08:42;;;;;;;3.35;1.70;;;;;;;;;;5051440;28;20049;-61
2023/10/29 08:11:18;;;;;;;3.85;1.83;;;;;;;;;;5051371;28;20040;-62
2023/10/29 08:13:43;;;;;;;4.07;1.38;;;;;;;;;;5049409;28;20077;-61
2023/10/29 08:16:09;;;;;;;5.50;1.10;;;;;;;;;;5049451;28;20062;-61
2023/10/29 08:18:34;;;;;;;3.67;1.20;;;;;;;;;;5050731;28;20048;-62
2023/10/29 08:21:00;;;;;;;6.60;1.38;;;;;;;;;;5051144;28;20090;-60
2023/10/29 08:23:26;;;;;;;3.13;0.90;;;;;;;;;;5051506;28;20085;-61
2023/10/29 08:25:52;;;;;;;2.38;0.80;;;;;;;;;;5047811;28;20040;-61
2023/10/29 08:28:19;;;;;;;2.00;0.82;;;;;;;;;;5049555;28;20170;-61
2023/10/29 08:30:47;;;;;;;3.58;0.90;;;;;;;;;;5054671;28;20064;-62
2023/10/29 08:33:12;;;;;;;2.10;0.80;;;;;;;;;;5053120;28;20068;-61
2023/10/29 08:35:42;;;;;;;1.90;0.70;;;;;;;;;;5049987;28;20048;-60
2023/10/29 08:38:08;;;;;;;2.50;1.05;;;;;;;;;;5053832;28;20070;-60
2023/10/29 08:40:33;;;;;;;2.22;0.80;;;;;;;;;;5056459;28;20029;-62
2023/10/29 08:42:59;;;;;;;4.47;0.80;;;;;;;;;;5054161;28;20792;-61
2023/10/29 08:45:25;;;;;;;1.40;0.50;;;;;;;;;;5055818;28;20094;-61
2023/10/29 08:47:50;;;;;;;1.92;0.75;;;;;;;;;;5055280;28;20044;-61
2023/10/29 08:50:16;;;;;;;3.28;0.80;;;;;;;;;;5052807;28;20037;-62
2023/10/29 08:52:41;;;;;;;1.35;0.50;;;;;;;;;;5052293;28;20052;-59
2023/10/29 08:55:08;;;;;;;2.05;0.85;;;;;;;;;;5053678;28;20037;-61
2023/10/29 08:57:35;;;;;;;1.88;0.70;;;;;;;;;;5055922;28;20056;-60
2023/10/29 09:00:01;;;;;;;1.50;0.70;;;;;;;;;;5051756;28;20067;-60
2023/10/29 09:02:26;;;;;;;1.63;0.60;;;;;;;;;;5053741;28;20033;-61
2023/10/29 09:04:56;;;;;;;2.38;0.65;;;;;;;;;;5054998;28;20048;-62
2023/10/29 09:07:23;;;;;;;2.92;0.95;;;;;;;;;;5053681;28;20063;-62
2023/10/29 09:09:49;;;;;;;2.00;0.60;;;;;;;;;;5058408;28;20067;-61
2023/10/29 09:12:14;;;;;;;2.28;0.70;;;;;;;;;;5057575;28;20616;-61
2023/10/29 09:14:40;;;;;;;2.70;0.60;;;;;;;;;;5057228;28;20071;-62
2023/10/29 09:17:06;;;;;;;1.80;0.70;;;;;;;;;;5055672;28;20102;-60
2023/10/29 09:19:33;;;;;;;1.95;0.65;;;;;;;;;;5057132;28;20044;-61
2023/10/29 09:21:59;;;;;;;2.60;1.00;;;;;;;;;;5057571;28;20681;-62
2023/10/29 09:24:24;;;;;;;1.83;0.70;;;;;;;;;;5056975;28;20025;-59
2023/10/29 09:26:50;;;;;;;3.03;0.70;;;;;;;;;;5054249;28;20044;-61
2023/10/29 09:29:16;;;;;;;2.35;0.80;;;;;;;;;;5055176;28;20460;-61
2023/10/29 09:31:42;;;;;;;1.60;0.70;;;;;;;;;;5057120;28;20124;-62
2023/10/29 09:34:08;;;;;;;3.63;0.70;;;;;;;;;;5056267;28;20131;-62
2023/10/29 09:36:33;;;;;;;4.28;0.98;;;;;;;;;;5054450;28;20052;-62
2023/10/29 09:38:59;;;;;;;4.07;0.70;;;;;;;;;;5055426;28;20742;-61
2023/10/29 09:41:24;;;;;;;2.30;0.70;;;;;;;;;;5056642;28;20083;-61
2023/10/29 09:43:52;;;;;;;1.88;0.50;;;;;;;;;;5056812;28;20033;-61
2023/10/29 09:46:18;;;;;;;1.20;0.60;;;;;;;;;;5058201;28;20048;-60
2023/10/29 09:48:44;;;;;;;1.67;0.68;;;;;;;;;;5058799;28;20080;-61
2023/10/29 09:51:10;;;;;;;2.17;0.73;;;;;;;;;;5055355;28;20124;-61
2023/10/29 09:53:36;;;;;;;1.75;0.70;;;;;;;;;;5054477;28;20044;-60
2023/10/29 09:56:03;;;;;;;1.23;0.52;;;;;;;;;;5054797;28;20076;-61
2023/10/29 09:58:28;;;;;;;2.30;0.90;;;;;;;;;;5056553;28;20064;-61
2023/10/29 10:00:54;;;;;;;5.93;1.10;;;;;;;;;;5058909;28;20034;-62
2023/10/29 10:03:20;;;;;;;2.25;1.00;;;;;;;;;;5059977;28;20048;-61
2023/10/29 10:05:46;;;;;;;1.52;0.70;;;;;;;;;;5056763;28;20060;-61
2023/10/29 10:08:12;;;;;;;4.63;0.80;;;;;;;;;;5057312;28;20036;-61
2023/10/29 10:10:37;;;;;;;4.40;0.80;;;;;;;;;;5057610;28;20068;-61
2023/10/29 10:13:04;;;;;;;2.70;0.88;;;;;;;;;;5056455;28;20071;-61
2023/10/29 10:15:29;;;;;;;2.78;0.88;;;;;;;;;;5057900;28;20517;-61
2023/10/29 10:17:59;;;;;;;3.08;1.08;;;;;;;;;;5057931;28;20032;-61
2023/10/29 10:20:24;;;;;;;3.63;0.80;;;;;;;;;;5052342;28;20059;-62
2023/10/29 10:22:56;;;;;;;4.10;1.10;;;;;;;;;;5057152;28;20074;-62
2023/10/29 10:25:23;;;;;;;3.72;1.05;;;;;;;;;;5053924;28;20064;-61
2023/10/29 10:27:58;;;;;;;4.55;1.02;;;;;;;;;;5054933;28;20065;-61
2023/10/29 10:30:27;;;;;;;3.25;1.15;;;;;;;;;;5057555;28;21583;-60
2023/10/29 10:32:53;;;;;;;3.50;1.05;;;;;;;;;;5053965;28;20068;-61
2023/10/29 10:35:18;;;;;;;6.43;1.27;;;;;;;;;;5055963;28;20170;-60
2023/10/29 10:37:54;;;;;;;4.85;1.20;;;;;;;;;;5059577;28;20025;-61
2023/10/29 10:40:23;;;;;;;2.55;1.08;;;;;;;;;;5055526;28;20090;-61
2023/10/29 10:42:56;;;;;;;2.60;0.93;;;;;;;;;;5057470;28;20951;-61
2023/10/29 10:45:26;;;;;;;3.70;1.00;;;;;;;;;;5054860;28;20068;-61
2023/10/29 10:47:55;;;;;;;3.08;1.00;;;;;;;;;;5053966;28;20117;-60
2023/10/29 10:50:22;;;;;;;4.68;1.05;;;;;;;;;;5056649;28;20682;-61
2023/10/29 10:52:49;;;;;;;3.40;1.35;;;;;;;;;;5051720;28;20075;-59
2023/10/29 10:55:15;;;;;;;6.03;1.77;;;;;;;;;;5050333;28;20647;-62
2023/10/29 10:57:42;;;;;;;3.03;1.40;;;;;;;;;;5051808;28;20064;-61
2023/10/29 11:00:10;;;;;;;2.50;1.00;;;;;;;;;;5052953;28;20079;-62
2023/10/29 11:02:37;;;;;;;3.42;1.20;;;;;;;;;;5052106;28;20071;-62
2023/10/29 11:05:04;;;;;;;2.95;1.15;;;;;;;;;;5051531;28;20185;-61
2023/10/29 11:07:30;;;;;;;3.40;1.00;;;;;;;;;;5053115;28;20055;-60
2023/10/29 11:09:58;;;;;;;2.97;1.00;;;;;;;;;;5052906;28;20059;-61
2023/10/29 11:12:24;;;;;;;2.90;1.05;;;;;;;;;;5053635;28;20095;-62
2023/10/29 11:15:08;;;;;;;2.92;0.90;;;;;;;;;;5056115;28;20036;-62
2023/10/29 11:17:49;;;;;;;2.60;0.90;;;;;;;;;;5051608;28;20064;-62
2023/10/29 11:20:34;;;;;;;5.97;1.10;;;;;;;;;;5054456;28;20066;-61
2023/10/29 11:23:06;;;;;;;3.10;1.30;;;;;;;;;;5053113;28;20068;-61
2023/10/29 11:25:31;;;;;;;3.95;1.40;;;;;;;;;;5039111;28;20068;-60
2023/10/29 11:27:57;;;;;;;2.70;1.08;;;;;;;;;;5049162;28;20036;-60
2023/10/29 11:30:23;;;;;;;3.95;1.10;;;;;;;;;;5053244;28;20441;-62
2023/10/29 11:33:10;;;;;;;4.70;1.27;;;;;;;;;;5052955;28;20141;-61
2023/10/29 11:35:39;;;;;;;2.60;1.35;;;;;;;;;;5051762;28;20591;-61
2023/10/29 11:38:23;;;;;;;4.70;1.55;;;;;;;;;;5052893;28;20075;-61
2023/10/29 11:40:52;;;;;;;4.10;1.02;;;;;;;;;;5049457;28;20065;-62
2023/10/29 11:43:22;;;;;;;5.93;1.13;;;;;;;;;;5052206;28;20071;-60
2023/10/29 11:46:01;;;;;;;10.50;1.60;;;;;;;;;;5054088;28;20067;-61
2023/10/29 11:48:29;;;;;;;6.43;1.52;;;;;;;;;;5050177;28;20087;-61
2023/10/29 11:51:05;;;;;;;5.50;1.65;;;;;;;;;;5053227;28;20100;-61
2023/10/29 11:53:31;;;;;;;3.53;1.33;;;;;;;;;;5051182;28;20086;-62
2023/10/29 11:55:59;;;;;;;5.93;1.75;;;;;;;;;;5052245;28;20076;-62
2023/10/29 11:58:25;;;;;;;8.98;2.05;;;;;;;;;;5051739;28;20499;-62
2023/10/29 12:00:51;;;;;;;7.13;2.22;;;;;;;;;;5051610;28;20773;-62
2023/10/29 12:03:20;;;;;;;10.02;2.17;;;;;;;;;;5052375;28;20036;-60
2023/10/29 12:05:47;;;;;;;10.63;2.20;;;;;;;;;;5051801;28;20064;-61
2023/10/29 12:08:12;;;;;;;9.63;2.25;;;;;;;;;;5051586;28;20604;-60
2023/10/29 12:10:48;;;;;;;8.82;2.03;;;;;;;;;;5054617;28;20036;-60
2023/10/29 12:13:13;;;;;;;8.43;2.08;;;;;;;;;;5052526;28;20082;-62
2023/10/29 12:15:39;;;;;;;10.35;2.45;;;;;;;;;;5047938;28;20120;-60
2023/10/29 12:18:05;;;;;;;8.60;2.20;;;;;;;;;;5052503;28;20139;-61
2023/10/29 12:20:31;;;;;;;6.97;1.80;;;;;;;;;;5050235;28;20029;-62
2023/10/29 12:22:57;;;;;;;12.05;2.45;;;;;;;;;;5050873;28;20083;-62
2023/10/29 12:25:26;;;;;;;7.70;2.30;;;;;;;;;;5049626;28;20604;-61
2023/10/29 12:27:52;;;;;;;8.48;2.28;;;;;;;;;;5049973;28;20068;-62
2023/10/29 12:30:36;;;;;;;7.82;1.92;;;;;;;;;;5050693;28;20044;-61
2023/10/29 12:33:22;;;;;;;5.77;1.90;;;;;;;;;;5050147;28;20140;-60
2023/10/29 12:35:52;;;;;;;5.78;1.90;;;;;;;;;;5047065;28;20623;-61
2023/10/29 12:38:18;;;;;;;7.43;2.15;;;;;;;;;;5050945;28;20068;-61
2023/10/29 12:40:59;;;;;;;5.85;2.00;;;;;;;;;;5052663;28;20118;-61
2023/10/29 12:43:31;;;;;;;8.40;2.20;;;;;;;;;;5049643;28;20146;-61
2023/10/29 12:46:00;;;;;;;8.63;2.00;;;;;;;;;;5049541;28;20064;-61
2023/10/29 12:48:25;;;;;;;6.38;1.80;;;;;;;;;;5050686;28;20068;-62
2023/10/29 12:50:51;;;;;;;7.75;2.45;;;;;;;;;;5050920;28;20044;-62
2023/10/29 12:53:27;;;;;;;5.53;1.88;;;;;;;;;;5052074;28;20102;-61
2023/10/29 12:55:53;;;;;;;5.75;1.80;;;;;;;;;;5054212;28;20072;-60
2023/10/29 12:58:20;;;;;;;6.10;1.80;;;;;;;;;;5051252;28;20465;-61
2023/10/29 13:00:45;;;;;;;6.70;2.00;;;;;;;;;;5054390;28;20075;-61
2023/10/29 13:03:11;;;;;;;5.43;1.85;;;;;;;;;;5053548;28;20527;-61
2023/10/29 13:05:37;;;;;;;6.22;2.10;;;;;;;;;;5050421;28;20067;-60
2023/10/29 13:08:04;;;;;;;5.95;1.70;;;;;;;;;;5053174;28;20068;-60
2023/10/29 13:10:30;;;;;;;6.10;1.60;;;;;;;;;;5050363;28;20085;-60
2023/10/29 13:12:56;;;;;;;5.90;1.80;;;;;;;;;;5049528;28;20029;-61
2023/10/29 13:15:21;;;;;;;7.75;1.88;;;;;;;;;;5054407;28;20118;-62
2023/10/29 13:17:47;;;;;;;6.78;2.20;;;;;;;;;;5057193;28;20026;-61
2023/10/29 13:20:12;;;;;;;6.82;2.03;;;;;;;;;;5056044;28;20184;-62
2023/10/29 13:22:42;;;;;;;6.40;2.33;;;;;;;;;;5055085;28;20029;-61
2023/10/29 13:25:08;;;;;;;6.70;1.85;;;;;;;;;;5056743;28;20113;-61
2023/10/29 13:27:33;;;;;;;7.15;2.03;;;;;;;;;;5053750;28;20492;-62
2023/10/29 13:29:59;;;;;;;8.82;2.00;;;;;;;;;;5058567;28;20098;-59
2023/10/29 13:32:25;;;;;;;12.93;2.45;;;;;;;;;;5056772;28;20066;-62
2023/10/29 13:34:55;;;;;;;25.55;4.43;;;;;;;;;;5056093;28;20048;-60
2023/10/29 13:37:21;;;;;;;15.15;2.35;;;;;;;;;;5058507;28;20068;-61
2023/10/29 13:39:47;;;;;;;10.75;2.58;;;;;;;;;;5054679;28;20507;-59
2023/10/29 13:42:12;;;;;;;12.40;2.90;;;;;;;;;;5054980;28;20684;-61
2023/10/29 13:44:38;;;;;;;10.15;2.75;;;;;;;;;;5056121;28;20115;-60
2023/10/29 13:47:04;;;;;;;8.52;2.67;;;;;;;;;;5055284;28;20051;-60
2023/10/29 13:49:30;;;;;;;5.80;2.30;;;;;;;;;;5056182;28;20040;-61
2023/10/29 13:51:55;;;;;;;10.45;1.92;;;;;;;;;;5054190;28;20123;-61
2023/10/29 13:54:22;;;;;;;8.60;2.60;;;;;;;;;;5057132;28;20346;-61
2023/10/29 13:56:47;;;;;;;10.60;2.50;;;;;;;;;;5053355;28;20060;-60
2023/10/29 13:59:16;;;;;;;22.58;3.05;;;;;;;;;;5053241;28;20749;-61
2023/10/29 14:01:42;;;;;;;11.75;2.30;;;;;;;;;;5057002;28;20056;-61
2023/10/29 14:04:07;;;;;;;16.33;3.03;;;;;;;;;;5055701;28;20428;-61
2023/10/29 14:06:33;;;;;;;22.38;2.72;;;;;;;;;;5058912;28;20036;-61
2023/10/29 14:08:59;;;;;;;8.57;2.50;;;;;;;;;;5055399;28;20036;-60
2023/10/29 14:11:25;;;;;;;6.53;2.65;;;;;;;;;;5057361;28;20606;-61
2023/10/29 14:13:51;;;;;;;11.68;2.65;;;;;;;;;;5056793;28;20119;-60
2023/10/29 14:16:18;;;;;;;14.68;3.47;;;;;;;;;;5055343;28;20036;-61
2023/10/29 14:18:43;;;;;;;9.27;2.63;;;;;;;;;;5056879;28;20069;-61
2023/10/29 14:21:09;;;;;;;15.23;3.17;;;;;;;;;;5056187;28;20078;-61
2023/10/29 14:23:35;;;;;;;17.70;3.75;;;;;;;;;;5056328;28;20033;-62
2023/10/29 14:26:00;;;;;;;10.68;2.95;;;;;;;;;;5057468;28;20021;-59
2023/10/29 14:28:26;;;;;;;12.50;2.65;;;;;;;;;;5054543;28;20520;-62
2023/10/29 14:30:51;;;;;;;10.95;3.22;;;;;;;;;;5059169;28;20032;-61
2023/10/29 14:33:17;;;;;;;12.73;3.30;;;;;;;;;;5055861;28;20036;-61
2023/10/29 14:35:43;;;;;;;11.70;2.78;;;;;;;;;;5058446;28;20094;-63
2023/10/29 14:38:08;;;;;;;8.10;2.80;;;;;;;;;;5056497;28;20098;-61
2023/10/29 14:40:34;;;;;;;8.43;2.55;;;;;;;;;;5054071;28;20689;-61